createdAt,value
2022-11-20T00:04:03.100Z,29.67
2022-11-20T00:09:25.406Z,29.87
2022-11-20T00:14:47.581Z,27.45
2022-11-20T00:20:09.839Z,29.25
2022-11-20T00:25:32.090Z,27.75
2022-11-20T00:30:54.377Z,28.92
2022-11-20T00:36:26.781Z,27.27
2022-11-20T00:41:49.348Z,25.23
2022-11-20T00:47:11.532Z,26.50
2022-11-20T00:52:33.747Z,27.67
2022-11-20T00:57:55.893Z,27.90
2022-11-20T01:03:21.601Z,29.57
2022-11-20T01:08:43.864Z,31.20
2022-11-20T01:14:08.927Z,28.73
2022-11-20T01:19:34.564Z,29.00
2022-11-20T01:24:56.871Z,26.75
2022-11-20T01:30:20.803Z,26.85
2022-11-20T01:35:43.530Z,26.57
2022-11-20T01:41:08.669Z,25.77
2022-11-20T01:46:41.850Z,26.73
2022-11-20T01:52:15.497Z,26.50
2022-11-20T01:57:39.890Z,26.33
2022-11-20T02:03:19.714Z,25.57
2022-11-20T02:08:44.206Z,25.67
2022-11-20T02:14:06.755Z,26.52
2022-11-20T02:19:38.766Z,24.67
2022-11-20T02:25:03.179Z,26.55
2022-11-20T02:30:26.082Z,24.65
2022-11-20T02:35:53.238Z,26.20
2022-11-20T02:41:15.543Z,25.02
2022-11-20T02:46:38.093Z,25.85
2022-11-20T02:52:00.369Z,26.27
2022-11-20T02:57:22.684Z,26.85
2022-11-20T03:02:45.639Z,27.32
2022-11-20T03:08:07.872Z,27.35
2022-11-20T03:13:30.053Z,26.42
2022-11-20T03:18:52.817Z,29.72
2022-11-20T03:24:15.896Z,28.80
2022-11-20T03:29:38.165Z,30.08
2022-11-20T03:35:00.998Z,25.85
2022-11-20T03:40:23.689Z,25.70
2022-11-20T03:45:45.913Z,25.65
2022-11-20T03:51:24.023Z,24.72
2022-11-20T03:56:49.348Z,25.97
2022-11-20T04:02:11.712Z,28.17
2022-11-20T04:07:34.205Z,27.20
2022-11-20T04:12:56.458Z,24.60
2022-11-20T04:18:19.637Z,24.63
2022-11-20T04:23:41.906Z,25.85
2022-11-20T04:29:04.416Z,24.77
2022-11-20T04:34:26.981Z,22.70
2022-11-20T04:39:49.278Z,21.80
2022-11-20T04:45:11.744Z,21.93
2022-11-20T04:50:34.002Z,22.82
2022-11-20T04:55:56.345Z,20.88
2022-11-20T05:01:29.188Z,20.23
2022-11-20T05:06:51.468Z,20.62
2022-11-20T05:12:14.757Z,19.82
2022-11-20T05:17:37.005Z,18.98
2022-11-20T05:22:59.284Z,17.62
2022-11-20T05:28:21.529Z,18.45
2022-11-20T05:33:44.670Z,19.37
2022-11-20T05:39:06.920Z,18.87
2022-11-20T05:44:33.240Z,19.52
2022-11-20T05:49:55.438Z,18.98
2022-11-20T05:55:18.301Z,19.92
2022-11-20T06:00:40.578Z,20.60
2022-11-20T06:06:03.037Z,20.57
2022-11-20T06:11:27.016Z,21.15
2022-11-20T06:16:49.218Z,21.55
2022-11-20T06:22:11.398Z,21.62
2022-11-20T06:27:34.483Z,22.45
2022-11-20T06:32:56.800Z,22.10
2022-11-20T06:38:19.159Z,22.98
2022-11-20T06:43:42.488Z,25.08
2022-11-20T06:49:05.429Z,24.98
2022-11-20T06:54:27.598Z,23.42
2022-11-20T06:59:49.808Z,23.18
2022-11-20T07:05:12.070Z,25.08
2022-11-20T07:10:34.327Z,24.07
2022-11-20T07:15:56.626Z,24.05
2022-11-20T07:21:27.136Z,26.45
2022-11-20T07:26:50.600Z,26.87
2022-11-20T07:32:12.790Z,26.10
2022-11-20T07:37:35.324Z,25.37
2022-11-20T07:43:04.749Z,24.72
2022-11-20T07:48:26.957Z,24.30
2022-11-20T07:53:49.674Z,26.17
2022-11-20T07:59:13.058Z,27.62
2022-11-20T08:04:35.351Z,28.57
2022-11-20T08:09:57.867Z,27.25
2022-11-20T08:15:21.868Z,27.42
2022-11-20T08:20:44.977Z,28.38
2022-11-20T08:26:08.778Z,24.77
2022-11-20T08:31:31.648Z,27.10
2022-11-20T08:36:54.177Z,25.90
2022-11-20T08:42:18.398Z,25.43
2022-11-20T08:47:40.695Z,27.30
2022-11-20T08:53:03.160Z,27.45
2022-11-20T08:58:26.032Z,27.70
2022-11-20T09:03:48.570Z,27.32
2022-11-20T09:09:14.548Z,26.33
2022-11-20T09:14:36.728Z,25.50
2022-11-20T09:19:59.936Z,27.32
2022-11-20T09:25:22.713Z,26.30
2022-11-20T09:30:45.755Z,23.27
2022-11-20T09:36:07.989Z,26.25
2022-11-20T09:41:44.409Z,25.08
2022-11-20T09:47:39.831Z,26.97
2022-11-20T09:59:09.407Z,28.53
2022-11-20T10:04:41.836Z,26.57
2022-11-20T10:10:10.039Z,30.37
2022-11-20T10:15:41.804Z,34.27
2022-11-20T10:21:26.873Z,29.47
2022-11-20T10:27:02.410Z,29.30
2022-11-20T10:32:32.521Z,30.90
2022-11-20T10:38:08.052Z,31.93
2022-11-20T10:43:37.941Z,32.90
2022-11-20T10:49:02.122Z,37.07
2022-11-20T10:54:53.525Z,37.48
2022-11-20T11:00:22.196Z,35.40
2022-11-20T11:06:10.015Z,34.63
2022-11-20T11:11:41.933Z,35.50
2022-11-20T11:17:11.794Z,38.95
2022-11-20T11:22:36.546Z,34.03
2022-11-20T11:28:09.074Z,37.23
2022-11-20T11:33:40.177Z,36.15
2022-11-20T11:39:05.180Z,34.60
2022-11-20T11:45:00.464Z,30.30
2022-11-20T11:50:27.012Z,26.30
2022-11-20T11:56:12.441Z,26.45
2022-11-20T12:02:00.279Z,27.05
2022-11-20T12:07:47.297Z,28.15
2022-11-20T12:13:02.435Z,26.37
2022-11-20T12:18:28.546Z,28.30
2022-11-20T12:24:19.722Z,27.82
2022-11-20T12:30:13.953Z,31.17
2022-11-20T12:35:57.940Z,28.92
2022-11-20T12:42:21.406Z,30.03
2022-11-20T12:48:06.691Z,30.87
2022-11-20T12:54:05.270Z,29.40
2022-11-20T12:59:47.415Z,31.37
2022-11-20T13:05:45.968Z,35.73
2022-11-20T13:11:47.667Z,29.67
2022-11-20T13:17:29.175Z,32.30
2022-11-20T13:28:37.947Z,30.23
2022-11-20T13:34:01.767Z,30.20
2022-11-20T13:39:33.799Z,30.63
2022-11-20T13:45:02.653Z,29.00
2022-11-20T13:50:29.682Z,26.70
2022-11-20T13:56:15.270Z,28.43
2022-11-20T14:01:44.043Z,26.93
2022-11-20T14:07:08.154Z,22.13
2022-11-20T14:12:38.974Z,27.35
2022-11-20T14:18:01.767Z,25.77
2022-11-20T14:23:32.411Z,26.33
2022-11-20T14:28:56.324Z,26.33
2022-11-20T14:40:00.388Z,26.73
2022-11-20T14:45:24.886Z,24.97
2022-11-20T14:50:48.970Z,25.40
2022-11-20T14:56:16.270Z,25.63
2022-11-20T15:01:41.318Z,24.37
2022-11-20T15:07:12.245Z,23.33
2022-11-20T15:12:37.178Z,26.00
2022-11-20T15:18:00.719Z,26.73
2022-11-20T15:23:26.974Z,24.27
2022-11-20T15:28:55.465Z,24.72
2022-11-20T15:34:19.619Z,26.17
2022-11-20T15:39:42.344Z,28.50
2022-11-20T15:45:05.211Z,23.67
2022-11-20T15:50:30.708Z,23.07
2022-11-20T15:55:53.104Z,25.50
2022-11-20T16:01:19.896Z,27.27
2022-11-20T16:06:42.494Z,27.45
2022-11-20T16:12:04.686Z,26.67
2022-11-20T16:17:29.611Z,30.23
2022-11-20T16:22:51.946Z,30.80
2022-11-20T16:28:18.879Z,28.67
2022-11-20T16:33:39.199Z,27.58
2022-11-20T16:39:04.230Z,27.43
2022-11-20T16:44:27.607Z,29.95
2022-11-20T16:49:49.839Z,27.23
2022-11-20T16:55:12.526Z,29.73
2022-11-20T17:00:35.589Z,27.50
2022-11-20T17:05:57.938Z,28.40
2022-11-20T17:11:23.750Z,28.60
2022-11-20T17:16:47.073Z,26.97
2022-11-20T17:22:10.371Z,27.70
2022-11-20T17:27:34.182Z,26.55
2022-11-20T17:32:56.903Z,26.48
2022-11-20T17:38:19.485Z,28.27
2022-11-20T17:43:43.071Z,27.62
2022-11-20T17:49:06.495Z,27.80
2022-11-20T17:54:29.966Z,28.00
2022-11-20T17:59:52.192Z,25.70
2022-11-20T18:05:14.921Z,26.10
2022-11-20T18:10:37.796Z,25.85
2022-11-20T18:16:00.550Z,26.65
2022-11-20T18:21:23.104Z,24.75
2022-11-20T18:26:45.785Z,24.73
2022-11-20T18:32:08.035Z,23.20
2022-11-20T18:37:31.910Z,26.50
2022-11-20T18:43:13.627Z,25.27
2022-11-20T18:48:39.242Z,25.87
2022-11-20T18:54:01.649Z,24.80
2022-11-20T18:59:26.700Z,22.57
2022-11-20T19:04:49.514Z,27.40
2022-11-20T19:10:12.454Z,24.87
2022-11-20T19:15:36.416Z,24.95
2022-11-20T19:20:58.734Z,24.65
2022-11-20T19:26:21.128Z,24.05
2022-11-20T19:31:44.479Z,24.85
2022-11-20T19:37:06.676Z,25.62
2022-11-20T19:42:28.856Z,26.00
2022-11-20T19:48:08.021Z,27.75
2022-11-20T19:53:14.999Z,25.52
2022-11-20T19:58:37.986Z,25.88
2022-11-20T20:04:05.606Z,27.93
2022-11-20T20:09:30.841Z,31.02
2022-11-20T20:14:53.365Z,27.20
2022-11-20T20:20:16.488Z,28.67
2022-11-20T20:25:41.833Z,29.32
2022-11-20T20:31:04.136Z,26.90
2022-11-20T20:36:29.149Z,28.45
2022-11-20T20:41:51.361Z,28.30
2022-11-20T20:47:13.561Z,26.62
2022-11-20T20:52:35.886Z,25.45
2022-11-20T20:57:58.905Z,23.57
2022-11-20T21:03:21.085Z,25.23
2022-11-20T21:08:45.001Z,26.57
2022-11-20T21:14:07.842Z,23.73
2022-11-20T21:19:30.795Z,23.98
2022-11-20T21:24:53.954Z,24.50
2022-11-20T21:30:16.757Z,24.40
2022-11-20T21:35:42.076Z,25.52
2022-11-20T21:41:04.725Z,27.27
2022-11-20T21:46:33.976Z,24.63
2022-11-20T21:51:57.290Z,30.13
2022-11-20T21:57:19.482Z,30.05
2022-11-20T22:02:41.656Z,28.97
2022-11-20T22:08:03.895Z,26.93
2022-11-20T22:13:44.012Z,25.72
2022-11-20T22:19:09.641Z,27.07
2022-11-20T22:24:33.700Z,26.02
2022-11-20T22:29:55.871Z,24.27
2022-11-20T22:35:18.764Z,24.40
2022-11-20T22:40:40.981Z,26.17
2022-11-20T22:46:13.505Z,26.85
2022-11-20T22:51:39.012Z,25.60
2022-11-20T22:57:01.834Z,25.63
2022-11-20T23:02:24.247Z,28.40
2022-11-20T23:07:46.622Z,26.87
2022-11-20T23:13:08.851Z,27.07
2022-11-20T23:18:31.029Z,28.83
2022-11-20T23:23:57.200Z,30.23
2022-11-20T23:29:20.439Z,29.10
2022-11-20T23:34:42.688Z,30.07
2022-11-20T23:40:04.945Z,31.55
2022-11-20T23:45:27.447Z,29.30
2022-11-20T23:50:51.160Z,31.75
2022-11-20T23:56:17.407Z,31.02
